Time;durP1;ratioP1;P1;durP2;ratioP2;P2;SDS_P1;SDS_P2;PMS_P1;PMS_P2;Temp;Humidity;BMP_temperature;BMP_pressure;BME280_temperature;BME280_humidity;BME280_pressure;Samples;Min_cycle;Max_cycle;Signal;HPM_P1;HPM_P2
2021/08/06 00:00:58;;;;;;;9.90;6.70;;;;;;;15.40;80.88;99279.11;2005887;88;28737;-64
2021/08/06 00:04:01;;;;;;;9.13;7.60;;;;;;;15.43;80.88;99276.16;2003271;88;32296;-64
2021/08/06 00:07:04;;;;;;;8.93;7.30;;;;;;;15.44;80.90;99265.72;2023189;87;33803;-64
2021/08/06 00:10:07;;;;;;;7.83;7.00;;;;;;;15.47;81.03;99266.81;2043362;86;29450;-64
2021/08/06 00:13:09;;;;;;;8.98;6.47;;;;;;;15.48;80.87;99264.47;2006482;88;27757;-65
2021/08/06 00:16:11;;;;;;;9.45;8.40;;;;;;;15.48;80.89;99270.72;2008490;88;29966;-71
2021/08/06 00:19:13;;;;;;;10.13;9.00;;;;;;;15.48;80.92;99263.13;2008769;88;31450;-71
2021/08/06 00:22:15;;;;;;;10.45;8.45;;;;;;;15.49;80.88;99272.94;2005554;88;33841;-65
2021/08/06 00:25:18;;;;;;;11.33;9.73;;;;;;;15.48;80.89;99268.02;2023617;88;30236;-64
2021/08/06 00:28:20;;;;;;;10.78;9.65;;;;;;;15.47;80.83;99273.56;2044013;87;27860;-64
2021/08/06 00:31:21;;;;;;;11.30;9.90;;;;;;;15.45;80.91;99273.70;2024092;87;29329;-64
2021/08/06 00:34:23;;;;;;;13.08;10.28;;;;;;;15.46;80.90;99278.59;2017232;88;31150;-74
2021/08/06 00:37:25;;;;;;;13.83;11.28;;;;;;;15.44;81.02;99271.99;2003055;88;33399;-69
2021/08/06 00:40:28;;;;;;;13.55;12.00;;;;;;;15.43;81.13;99270.76;2017052;88;30562;-71
2021/08/06 00:43:30;;;;;;;13.72;10.50;;;;;;;15.39;80.98;99264.78;2005472;88;27779;-64
2021/08/06 00:46:32;;;;;;;15.65;11.75;;;;;;;15.37;81.03;99265.91;2006210;88;29834;-71
2021/08/06 00:49:34;;;;;;;13.20;11.73;;;;;;;15.35;81.12;99261.98;2005869;88;32459;-74
2021/08/06 00:52:36;;;;;;;14.07;11.05;;;;;;;15.33;81.17;99258.55;2004722;88;32174;-65
2021/08/06 00:55:38;;;;;;;12.75;11.40;;;;;;;15.30;81.22;99262.37;2043601;87;30691;-67
2021/08/06 00:58:41;;;;;;;12.23;11.03;;;;;;;15.27;81.27;99259.94;2000936;88;27732;-69
2021/08/06 01:01:48;;;;;;;13.40;12.00;;;;;;;15.26;81.33;99258.23;2002136;88;28663;-70
2021/08/06 01:05:04;;;;;;;13.40;12.10;;;;;;;15.24;81.41;99266.95;2007120;88;31894;-67
2021/08/06 01:08:10;;;;;;;13.18;11.53;;;;;;;15.24;81.43;99254.80;2008779;88;32970;-65
2021/08/06 01:11:14;;;;;;;12.65;11.50;;;;;;;15.22;81.42;99247.84;2007491;88;30562;-65
2021/08/06 01:14:20;;;;;;;13.83;12.20;;;;;;;15.22;81.60;99246.02;2001499;88;27660;-65
2021/08/06 01:17:22;;;;;;;13.18;11.88;;;;;;;15.22;81.54;99240.62;2043942;87;29547;-64
2021/08/06 01:20:28;;;;;;;12.63;11.43;;;;;;;15.19;81.45;99240.88;1989734;89;32454;-65
2021/08/06 01:23:34;;;;;;;12.53;11.22;;;;;;;15.17;81.56;99240.98;2044142;86;34026;-65
2021/08/06 01:26:36;;;;;;;13.22;11.83;;;;;;;15.16;81.50;99239.78;2039637;87;30078;-65
2021/08/06 01:29:38;;;;;;;13.62;10.80;;;;;;;15.13;81.50;99240.91;2037468;87;27706;-65
2021/08/06 01:32:41;;;;;;;12.88;11.18;;;;;;;15.13;81.50;99237.34;2034148;86;29890;-65
2021/08/06 01:35:44;;;;;;;12.23;11.03;;;;;;;15.12;81.57;99232.94;2032270;87;32274;-65
2021/08/06 01:38:46;;;;;;;12.47;10.63;;;;;;;15.12;81.62;99235.16;2027241;87;33035;-65
2021/08/06 01:42:16;;;;;;;13.25;10.55;;;;;;;15.11;81.70;99231.22;2025867;87;30525;-65
2021/08/06 01:45:22;;;;;;;17.62;11.08;;;;;;;15.09;81.53;99233.19;2032772;87;27684;-65
2021/08/06 01:48:28;;;;;;;13.05;10.58;;;;;;;15.08;81.61;99226.95;2028317;86;31304;-66
2021/08/06 01:51:34;;;;;;;9.88;8.80;;;;;;;15.09;81.66;99221.05;2026119;87;31073;-65
2021/08/06 01:54:36;;;;;;;10.95;9.83;;;;;;;15.09;81.69;99220.58;2026390;87;33125;-66
2021/08/06 01:57:39;;;;;;;11.18;10.08;;;;;;;15.10;81.74;99217.38;2028658;87;29702;-65
2021/08/06 02:00:41;;;;;;;11.90;9.95;;;;;;;15.09;81.72;99215.19;2032625;87;27762;-65
2021/08/06 02:03:43;;;;;;;13.10;10.18;;;;;;;15.10;81.72;99216.02;2032281;86;28742;-65
2021/08/06 02:06:45;;;;;;;11.93;10.75;;;;;;;15.10;81.71;99213.33;2032127;86;32191;-66
2021/08/06 02:09:48;;;;;;;10.08;9.18;;;;;;;15.12;81.82;99216.75;2025768;87;34207;-65
2021/08/06 02:12:50;;;;;;;13.83;9.93;;;;;;;15.12;81.72;99216.27;2025829;87;29371;-65
2021/08/06 02:15:52;;;;;;;12.47;9.55;;;;;;;15.11;81.71;99212.34;2026189;87;27719;-65
2021/08/06 02:18:55;;;;;;;11.28;9.75;;;;;;;15.11;81.68;99218.61;2031061;87;28667;-65
2021/08/06 02:22:00;;;;;;;12.33;9.55;;;;;;;15.11;81.72;99217.73;2032514;86;32180;-65
2021/08/06 02:25:04;;;;;;;;;;;;;;;15.11;81.63;99213.69;2035036;87;34189;-65
2021/08/06 02:28:06;;;;;;;11.20;10.05;;;;;;;15.09;81.72;99214.31;2029329;87;30284;-65
2021/08/06 02:31:08;;;;;;;12.60;9.88;;;;;;;15.08;81.84;99212.59;1978342;89;27768;-65
2021/08/06 02:34:11;;;;;;;11.95;10.28;;;;;;;15.07;81.77;99206.36;2012845;87;29937;-65
2021/08/06 02:37:13;;;;;;;14.78;9.68;;;;;;;15.07;81.83;99209.06;2003534;88;32047;-65
2021/08/06 02:40:15;;;;;;;11.00;9.10;;;;;;;15.06;81.81;99200.61;2020887;88;34403;-66
2021/08/06 02:43:18;;;;;;;11.08;9.98;;;;;;;15.05;81.77;99197.55;2038800;87;29656;-65
2021/08/06 02:46:20;;;;;;;11.30;9.80;;;;;;;15.06;81.83;99197.07;2038501;86;27671;-65
2021/08/06 02:49:22;;;;;;;11.05;9.93;;;;;;;15.04;81.79;99196.70;2032270;86;29986;-66
2021/08/06 02:52:23;;;;;;;10.58;9.45;;;;;;;15.06;81.85;99197.07;2031727;87;31376;-66
2021/08/06 02:55:25;;;;;;;10.70;9.60;;;;;;;15.07;81.98;99198.27;2031401;87;33813;-65
2021/08/06 02:58:27;;;;;;;10.32;9.33;;;;;;;15.05;81.87;99189.45;2035447;87;30439;-65
2021/08/06 03:01:29;;;;;;;10.70;9.68;;;;;;;15.03;81.86;99191.42;2038265;86;27932;-65
2021/08/06 03:04:31;;;;;;;10.30;9.40;;;;;;;15.04;81.93;99186.39;2038101;87;29922;-65
2021/08/06 03:07:33;;;;;;;11.03;9.60;;;;;;;15.02;81.88;99187.02;2036422;87;31467;-65
2021/08/06 03:10:35;;;;;;;11.20;10.05;;;;;;;15.02;81.89;99189.23;2031986;87;33117;-65
2021/08/06 03:13:37;;;;;;;11.90;10.05;;;;;;;15.02;81.97;99191.94;2032111;87;29698;-65
2021/08/06 03:16:39;;;;;;;15.63;10.08;;;;;;;15.03;81.99;99196.82;2032140;87;27715;-65
2021/08/06 03:19:41;;;;;;;12.28;10.90;;;;;;;15.03;81.97;99190.08;2038450;87;28657;-65
2021/08/06 03:22:43;;;;;;;12.03;10.65;;;;;;;15.04;81.93;99191.78;2038282;86;32281;-65
2021/08/06 03:25:45;;;;;;;13.48;10.40;;;;;;;15.04;82.04;99191.31;2038190;87;35132;-65
2021/08/06 03:28:46;;;;;;;11.45;10.35;;;;;;;15.02;82.00;99189.23;2034502;86;29339;-65
2021/08/06 03:31:48;;;;;;;10.95;10.00;;;;;;;15.00;81.90;99192.55;2032308;87;27729;-65
2021/08/06 03:34:50;;;;;;;11.80;10.58;;;;;;;14.98;81.98;99189.61;2025768;86;29887;-65
2021/08/06 03:37:52;;;;;;;12.10;10.80;;;;;;;14.98;81.99;99185.56;2028005;87;32256;-65
2021/08/06 03:40:54;;;;;;;12.30;11.05;;;;;;;14.99;82.02;99188.14;2032762;87;34124;-65
2021/08/06 03:43:56;;;;;;;14.35;11.10;;;;;;;15.00;82.01;99197.95;2032607;86;29683;-65
2021/08/06 03:46:58;;;;;;;18.23;12.73;;;;;;;15.00;81.99;99189.86;2032544;86;27635;-65
2021/08/06 03:50:00;;;;;;;13.20;11.80;;;;;;;15.01;82.04;99194.27;2025765;87;29916;-65
2021/08/06 03:53:03;;;;;;;13.00;10.38;;;;;;;15.03;82.12;99195.47;2026036;87;32175;-65
2021/08/06 03:56:06;;;;;;;14.78;11.10;;;;;;;15.02;82.04;99195.98;2025688;87;34062;-65
2021/08/06 03:59:09;;;;;;;11.50;10.30;;;;;;;15.05;82.16;99197.55;2030500;87;29331;-65
2021/08/06 04:02:11;;;;;;;12.18;10.93;;;;;;;15.08;82.16;99196.41;2032259;87;27728;-65
2021/08/06 04:05:13;;;;;;;13.10;11.90;;;;;;;15.09;82.13;99202.17;2032558;87;28669;-65
2021/08/06 04:08:16;;;;;;;13.55;11.90;;;;;;;15.08;82.05;99197.28;2030063;87;30691;-64
2021/08/06 04:11:20;;;;;;;12.68;11.48;;;;;;;15.08;82.04;99199.98;2032501;86;32948;-65
2021/08/06 04:14:22;;;;;;;15.38;13.70;;;;;;;15.10;82.13;99199.36;2032638;87;29331;-65
2021/08/06 04:17:25;;;;;;;17.42;12.25;;;;;;;15.12;82.13;99195.17;2029697;87;28229;-65
2021/08/06 04:20:27;;;;;;;14.80;12.82;;;;;;;15.14;82.14;99189.16;2025883;87;29885;-65
2021/08/06 04:23:29;;;;;;;14.40;13.00;;;;;;;15.17;82.13;99192.43;2026266;87;31981;-65
2021/08/06 04:26:32;;;;;;;15.18;13.10;;;;;;;15.19;82.14;99190.97;2030444;87;33053;-65
2021/08/06 04:29:33;;;;;;;14.28;12.82;;;;;;;15.22;82.13;99189.36;2032666;86;30467;-65
2021/08/06 04:32:36;;;;;;;14.80;13.30;;;;;;;15.25;82.12;99191.76;2030508;86;27646;-66
2021/08/06 04:35:37;;;;;;;15.88;13.88;;;;;;;15.29;82.08;99184.27;2025884;87;28703;-65
2021/08/06 04:38:39;;;;;;;13.98;12.50;;;;;;;15.32;82.05;99187.55;2026118;87;32203;-65
2021/08/06 04:41:41;;;;;;;13.78;12.37;;;;;;;15.34;82.03;99181.53;2025803;87;34185;-65
2021/08/06 04:44:46;;;;;;;17.77;13.80;;;;;;;15.38;82.05;99183.96;2025806;87;29345;-65
2021/08/06 04:47:49;;;;;;;;;;;;;;;15.43;82.07;99189.31;2029095;87;27610;-66
2021/08/06 04:50:51;;;;;;;15.75;13.98;;;;;;;15.48;82.01;99190.25;2026236;87;28734;-65
2021/08/06 04:53:53;;;;;;;16.55;14.70;;;;;;;15.52;82.05;99189.47;2029403;87;32294;-66
2021/08/06 04:56:55;;;;;;;15.32;13.72;;;;;;;15.56;82.06;99189.06;2030736;87;34500;-66
2021/08/06 04:59:57;;;;;;;16.27;14.58;;;;;;;15.61;82.07;99200.31;2032158;87;29749;-65
2021/08/06 05:02:59;;;;;;;16.82;14.43;;;;;;;15.67;82.01;99194.86;2029897;86;27849;-66
2021/08/06 05:06:00;;;;;;;16.32;14.65;;;;;;;15.69;81.92;99193.39;2025505;87;29901;-66
2021/08/06 05:09:02;;;;;;;14.73;13.22;;;;;;;15.72;82.10;99197.17;2026252;87;31051;-66
2021/08/06 05:12:04;;;;;;;15.48;13.28;;;;;;;15.72;82.10;99197.17;2025769;87;34196;-66
2021/08/06 05:15:07;;;;;;;16.23;14.63;;;;;;;15.74;81.83;99201.44;2031763;87;29326;-66
2021/08/06 05:18:09;;;;;;;16.02;14.35;;;;;;;15.74;81.79;99203.27;2032685;87;27722;-66
2021/08/06 05:21:11;;;;;;;17.45;14.83;;;;;;;15.74;81.86;99208.66;2032608;87;28878;-66
2021/08/06 05:24:13;;;;;;;16.95;14.05;;;;;;;15.73;81.80;99205.60;2028827;86;31995;-66
2021/08/06 05:27:15;;;;;;;16.80;14.70;;;;;;;15.72;81.77;99202.06;2026011;87;32972;-66
2021/08/06 05:30:20;;;;;;;18.07;14.75;;;;;;;15.74;81.75;99193.81;2026065;87;30139;-66
2021/08/06 05:33:21;;;;;;;16.23;13.95;;;;;;;15.77;81.85;99194.89;2027080;86;27605;-67
2021/08/06 05:36:22;;;;;;;16.93;14.00;;;;;;;15.80;81.71;99195.47;2019833;87;28719;-66
2021/08/06 05:39:24;;;;;;;15.30;13.40;;;;;;;15.85;81.73;99190.16;1995308;89;31876;-66
2021/08/06 05:42:29;;;;;;;16.00;13.32;;;;;;;15.91;81.73;99196.41;1995150;89;33804;-67
2021/08/06 05:45:31;;;;;;;16.75;15.05;;;;;;;15.92;81.64;99194.90;2026248;87;28785;-66
2021/08/06 05:48:33;;;;;;;17.02;13.38;;;;;;;15.95;81.51;99199.19;2026436;87;28283;-66
2021/08/06 05:51:34;;;;;;;16.23;13.70;;;;;;;15.97;81.51;99195.83;2026422;87;28649;-66
2021/08/06 05:54:37;;;;;;;15.05;13.55;;;;;;;15.93;81.54;99177.70;2025862;87;31490;-66
2021/08/06 05:57:38;;;;;;;16.80;14.28;;;;;;;16.05;81.48;99197.36;2025838;87;32960;-66
2021/08/06 06:00:40;;;;;;;15.45;13.80;;;;;;;16.12;81.56;99197.66;2025496;87;29547;-67
2021/08/06 06:03:42;;;;;;;17.57;15.78;;;;;;;16.18;81.55;99199.81;2025690;87;27816;-67
2021/08/06 06:06:44;;;;;;;17.57;14.05;;;;;;;16.32;81.40;99195.83;2022599;87;28643;-67
2021/08/06 06:09:45;;;;;;;15.50;13.90;;;;;;;16.32;81.40;99195.83;1995139;89;31867;-67
2021/08/06 06:12:49;;;;;;;14.87;13.38;;;;;;;16.45;81.57;99189.31;1995101;89;32992;-67
2021/08/06 06:15:51;;;;;;;15.53;13.70;;;;;;;16.59;81.51;99181.25;2022030;87;29246;-66
2021/08/06 06:18:53;;;;;;;17.87;13.70;;;;;;;16.76;81.29;99191.35;2026280;87;27742;-66
2021/08/06 06:21:55;;;;;;;14.65;13.25;;;;;;;16.84;81.35;99173.05;2026211;87;28722;-65
2021/08/06 06:24:57;;;;;;;15.55;12.28;;;;;;;17.22;81.41;99188.89;2026065;87;31946;-66
2021/08/06 06:28:03;;;;;;;14.15;12.33;;;;;;;17.56;81.08;99189.70;2019822;87;33038;-66
2021/08/06 06:31:04;;;;;;;17.40;12.43;;;;;;;17.86;80.86;99189.05;1994908;89;30151;-67
2021/08/06 06:34:06;;;;;;;12.75;11.55;;;;;;;18.14;80.51;99188.22;1996927;89;27656;-66
2021/08/06 06:37:08;;;;;;;15.48;12.43;;;;;;;18.36;79.93;99183.72;2000432;88;28703;-66
2021/08/06 06:40:12;;;;;;;14.15;11.80;;;;;;;18.62;79.80;99182.93;2000900;89;31196;-66
2021/08/06 06:43:14;;;;;;;11.97;10.75;;;;;;;18.79;79.06;99186.62;2000895;88;33059;-66
2021/08/06 06:46:15;;;;;;;12.43;10.80;;;;;;;18.89;78.61;99193.31;2000558;88;30121;-66
2021/08/06 06:49:17;;;;;;;11.88;10.72;;;;;;;19.11;78.66;99187.91;2000057;89;27675;-66
2021/08/06 06:52:19;;;;;;;10.72;9.70;;;;;;;19.20;77.94;99194.25;2000134;89;28174;-66
2021/08/06 06:55:22;;;;;;;11.55;10.45;;;;;;;19.21;77.60;99195.11;1999997;89;31865;-66
2021/08/06 06:58:24;;;;;;;14.15;10.85;;;;;;;19.13;77.26;99197.27;2000420;89;33788;-66
2021/08/06 07:01:26;;;;;;;11.10;9.78;;;;;;;19.05;77.10;99200.78;2000388;87;29506;-65
2021/08/06 07:04:28;;;;;;;12.15;10.68;;;;;;;18.96;76.85;99203.94;2000675;88;27815;-65
2021/08/06 07:07:30;;;;;;;11.28;10.23;;;;;;;18.89;76.74;99215.02;1999854;88;29702;-65
2021/08/06 07:10:32;;;;;;;11.80;9.53;;;;;;;18.85;76.80;99212.79;1999525;89;31096;-66
2021/08/06 07:13:34;;;;;;;15.30;10.15;;;;;;;18.77;76.65;99214.93;1964399;90;33768;-65
2021/08/06 07:16:36;;;;;;;10.08;8.75;;;;;;;18.75;76.60;99203.38;1965099;90;29425;-66
2021/08/06 07:19:37;;;;;;;10.40;9.43;;;;;;;18.78;76.63;99211.20;1965141;90;27670;-66
2021/08/06 07:22:39;;;;;;;13.85;9.48;;;;;;;18.81;76.88;99211.73;1969023;89;28883;-71
2021/08/06 07:25:41;;;;;;;10.45;9.03;;;;;;;18.93;77.15;99218.30;1959781;90;30975;-69
2021/08/06 07:28:43;;;;;;;10.58;9.08;;;;;;;19.03;76.94;99216.89;1966902;89;33032;-71
2021/08/06 07:31:45;;;;;;;10.10;8.13;;;;;;;19.10;76.79;99220.16;1965445;90;30174;-70
2021/08/06 07:34:47;;;;;;;12.45;8.55;;;;;;;19.21;76.53;99223.10;1974635;87;27755;-69
2021/08/06 07:37:49;;;;;;;8.05;7.30;;;;;;;19.34;76.78;99222.69;1961406;90;28731;-66
2021/08/06 07:40:54;;;;;;;7.75;7.05;;;;;;;19.45;76.18;99222.93;1966490;90;31808;-65
2021/08/06 07:43:55;;;;;;;7.37;6.70;;;;;;;19.53;76.04;99217.53;1971356;89;32572;-71
2021/08/06 07:46:57;;;;;;;9.30;6.37;;;;;;;19.58;75.48;99223.34;1987966;89;29395;-70
2021/08/06 07:49:59;;;;;;;7.05;6.42;;;;;;;19.66;75.72;99228.49;1978790;89;27688;-72
2021/08/06 07:53:01;;;;;;;17.12;6.60;;;;;;;19.65;74.75;99226.78;1987360;89;29481;-69
2021/08/06 07:56:05;;;;;;;7.55;5.45;;;;;;;19.68;75.02;99234.62;1959252;90;31038;-71
2021/08/06 07:59:09;;;;;;;6.08;4.55;;;;;;;19.82;74.76;99231.78;1969193;89;30427;-72
2021/08/06 08:02:13;;;;;;;5.37;4.15;;;;;;;19.89;74.18;99236.95;1986650;88;27783;-75
2021/08/06 08:05:15;;;;;;;7.33;4.37;;;;;;;20.01;74.12;99238.88;1978202;89;27694;-72
2021/08/06 08:08:20;;;;;;;6.35;4.17;;;;;;;20.13;73.72;99234.84;1987171;88;28713;-73
2021/08/06 08:11:25;;;;;;;5.97;4.00;;;;;;;20.26;73.31;99234.88;1978785;89;31081;-75
2021/08/06 08:14:30;;;;;;;5.30;4.10;;;;;;;20.35;73.00;99231.17;1987228;89;33031;-65
2021/08/06 08:17:35;;;;;;;5.28;3.62;;;;;;;20.37;72.29;99233.72;1968036;89;29567;-66
2021/08/06 08:20:40;;;;;;;4.83;3.92;;;;;;;20.48;72.62;99234.27;1964711;90;27732;-65
2021/08/06 08:23:44;;;;;;;10.32;4.83;;;;;;;20.62;72.14;99236.81;1966694;90;28858;-64
2021/08/06 08:26:50;;;;;;;3.40;3.10;;;;;;;20.78;71.76;99234.67;1966933;90;31039;-65
2021/08/06 08:29:55;;;;;;;4.05;3.20;;;;;;;20.92;71.31;99237.73;1977676;89;33639;-64
2021/08/06 08:33:00;;;;;;;4.67;3.35;;;;;;;21.07;70.77;99234.67;1987417;89;29419;-65
2021/08/06 08:36:07;;;;;;;5.35;3.00;;;;;;;21.29;70.58;99236.36;1978414;89;27799;-65
2021/08/06 08:39:11;;;;;;;3.92;3.15;;;;;;;21.43;70.31;99236.68;1987427;89;28818;-65
2021/08/06 08:42:14;;;;;;;2.65;2.35;;;;;;;21.52;69.36;99236.98;1966388;90;31720;-65
2021/08/06 08:45:18;;;;;;;7.72;3.10;;;;;;;21.58;69.04;99228.12;1966749;89;33220;-64
2021/08/06 08:48:21;;;;;;;4.42;2.77;;;;;;;21.69;68.97;99236.48;1966500;90;30075;-65
2021/08/06 08:51:29;;;;;;;3.80;3.05;;;;;;;21.75;68.61;99235.80;1950592;89;27799;-67
2021/08/06 08:54:34;;;;;;;3.67;3.33;;;;;;;21.78;68.59;99239.50;1987400;89;28191;-64
2021/08/06 08:57:37;;;;;;;7.10;3.17;;;;;;;21.83;67.96;99237.64;1978462;90;31903;-65
2021/08/06 09:00:41;;;;;;;4.10;3.00;;;;;;;21.88;67.59;99243.92;1987061;89;33059;-67
2021/08/06 09:03:52;;;;;;;5.20;3.25;;;;;;;21.97;67.36;99247.81;1985869;89;30007;-67
2021/08/06 09:06:55;;;;;;;3.22;2.92;;;;;;;22.06;67.23;99247.77;1959124;90;28277;-66
2021/08/06 09:10:17;;;;;;;3.95;2.58;;;;;;;22.19;66.74;99254.86;1966796;89;28797;-65
2021/08/06 09:13:25;;;;;;;3.55;3.10;;;;;;;22.29;65.91;99250.55;1979155;89;31154;-66
2021/08/06 09:16:28;;;;;;;6.72;2.95;;;;;;;22.43;65.31;99249.81;1987427;88;33106;-66
2021/08/06 09:19:34;;;;;;;3.00;2.80;;;;;;;22.56;65.53;99260.16;1978348;90;30186;-64
2021/08/06 09:22:40;;;;;;;3.65;2.80;;;;;;;22.69;65.15;99254.11;1982262;89;27719;-65
2021/08/06 09:25:43;;;;;;;3.42;2.87;;;;;;;22.89;64.28;99254.47;1981305;89;28672;-66
2021/08/06 09:29:22;;;;;;;3.05;2.60;;;;;;;22.98;64.19;99255.79;1968359;89;31958;-66
2021/08/06 09:32:29;;;;;;;5.53;3.05;;;;;;;23.03;63.67;99257.44;1920730;92;33686;-66
2021/08/06 09:35:32;;;;;;;4.35;2.70;;;;;;;23.25;63.62;99248.06;1926557;90;30146;-66
2021/08/06 09:38:35;;;;;;;2.90;2.67;;;;;;;23.46;63.21;99244.61;1968172;90;27799;-66
2021/08/06 09:41:44;;;;;;;5.35;2.80;;;;;;;23.62;62.83;99250.45;1968244;90;28711;-66
2021/08/06 09:45:04;;;;;;;2.72;2.52;;;;;;;23.93;62.29;99251.61;1968215;90;31830;-67
2021/08/06 09:48:09;;;;;;;3.37;2.47;;;;;;;24.15;61.55;99256.37;1966194;90;33978;-66
2021/08/06 09:51:14;;;;;;;2.22;1.77;;;;;;;24.26;58.74;99258.08;1975429;90;29323;-65
2021/08/06 09:54:30;;;;;;;2.17;1.98;;;;;;;24.38;58.79;99254.86;1943110;91;27838;-66
2021/08/06 09:57:45;;;;;;;1.70;1.60;;;;;;;24.54;58.89;99254.63;2000045;89;28891;-65
2021/08/06 10:00:50;;;;;;;7.37;2.15;;;;;;;24.64;57.38;99252.95;2000254;89;31113;-66
2021/08/06 10:03:57;;;;;;;3.15;1.92;;;;;;;24.68;55.99;99261.09;1994887;89;32963;-66
2021/08/06 10:06:59;;;;;;;3.08;1.70;;;;;;;24.72;55.99;99256.13;2005559;87;30331;-69
2021/08/06 10:10:07;;;;;;;1.87;1.30;;;;;;;24.77;54.92;99261.84;1999850;88;27811;-66
2021/08/06 10:13:09;;;;;;;3.42;1.77;;;;;;;24.84;55.26;99258.66;2000473;89;29501;-66
2021/08/06 10:16:12;;;;;;;1.80;1.70;;;;;;;24.88;54.39;99248.16;2000130;89;31113;-67
2021/08/06 10:19:14;;;;;;;2.15;1.50;;;;;;;24.96;54.77;99252.15;2050795;86;33176;-67
2021/08/06 10:22:16;;;;;;;1.62;1.52;;;;;;;25.07;53.39;99246.63;2049886;86;30222;-66
2021/08/06 10:25:19;;;;;;;1.67;1.35;;;;;;;25.18;53.86;99247.49;2053637;86;27693;-65
2021/08/06 10:28:22;;;;;;;3.47;1.62;;;;;;;25.18;52.14;99248.86;1998793;88;28680;-66
2021/08/06 10:31:25;;;;;;;1.60;1.50;;;;;;;25.07;52.07;99246.63;2019111;87;31167;-65
2021/08/06 10:34:26;;;;;;;1.55;1.32;;;;;;;24.99;51.18;99255.01;2017559;87;33721;-66
2021/08/06 10:37:57;;;;;;;5.42;1.70;;;;;;;24.91;51.10;99254.62;2003846;87;55112;-67
2021/08/06 10:41:00;;;;;;;1.75;1.50;;;;;;;24.93;50.36;99255.78;2017231;87;27809;-68
2021/08/06 10:44:06;;;;;;;3.72;1.90;;;;;;;24.95;51.05;99257.30;2051488;86;28700;-67
2021/08/06 10:47:08;;;;;;;2.00;1.90;;;;;;;24.97;50.86;99254.34;2038503;87;31871;-67
2021/08/06 10:50:22;;;;;;;2.27;1.55;;;;;;;24.96;49.25;99256.26;2038370;87;33763;-66
2021/08/06 10:53:25;;;;;;;1.87;1.75;;;;;;;24.83;49.45;99253.36;2038597;87;29340;-67
2021/08/06 10:56:36;;;;;;;4.65;1.70;;;;;;;24.77;48.75;99242.67;2035517;87;27908;-67
2021/08/06 10:59:40;;;;;;;1.82;1.67;;;;;;;24.75;48.42;99255.70;2031572;87;28663;-65
2021/08/06 11:02:46;;;;;;;2.37;1.77;;;;;;;24.65;48.54;99259.27;2031659;87;31035;-64
2021/08/06 11:05:48;;;;;;;4.85;1.72;;;;;;;24.42;49.53;99256.16;2039741;85;33786;-66
2021/08/06 11:08:50;;;;;;;1.80;1.70;;;;;;;24.16;48.04;99260.27;2040829;85;28944;-67
2021/08/06 11:12:12;;;;;;;2.08;1.98;;;;;;;23.88;48.84;99264.16;2031726;87;27780;-67
2021/08/06 11:15:14;;;;;;;3.55;1.90;;;;;;;23.70;47.54;99262.64;2031549;87;28886;-68
2021/08/06 11:18:16;;;;;;;2.55;1.90;;;;;;;23.54;48.52;99258.72;2037772;87;31019;-69
2021/08/06 11:21:18;;;;;;;2.60;2.37;;;;;;;23.32;48.93;99258.08;2038402;87;33185;-68
2021/08/06 11:24:20;;;;;;;2.87;2.12;;;;;;;23.21;48.82;99255.27;2038778;87;29503;-68
2021/08/06 11:27:38;;;;;;;3.20;1.85;;;;;;;23.15;49.20;99259.22;2035012;85;27645;-66
2021/08/06 11:30:41;;;;;;;3.15;2.05;;;;;;;23.03;48.57;99260.16;1961125;90;28663;-67
2021/08/06 11:33:44;;;;;;;5.17;4.20;;;;;;;22.92;48.89;99258.70;1960350;90;31274;-67
2021/08/06 11:36:58;;;;;;;3.52;1.70;;;;;;;22.84;48.25;99256.89;1949675;90;33066;-67
2021/08/06 11:40:07;;;;;;;3.77;1.70;;;;;;;22.72;47.81;99257.84;1906490;93;29608;-67
2021/08/06 11:43:21;;;;;;;1.60;1.50;;;;;;;22.66;48.01;99262.66;1935955;90;27696;-67
2021/08/06 11:46:23;;;;;;;4.70;3.27;;;;;;;22.68;48.05;99262.47;1934932;91;29457;-67
2021/08/06 11:49:24;;;;;;;3.37;1.50;;;;;;;22.75;47.68;99262.09;1906132;93;31089;-66
2021/08/06 11:52:49;;;;;;;2.40;1.50;;;;;;;22.76;47.21;99262.42;1905925;93;33129;-65
2021/08/06 11:55:57;;;;;;;9.23;3.77;;;;;;;22.79;47.83;99262.56;1906342;93;30140;-67
2021/08/06 11:59:06;;;;;;;10.08;6.80;;;;;;;22.89;47.04;99257.73;1923594;91;27781;-66
2021/08/06 12:02:19;;;;;;;12.55;6.92;;;;;;;22.87;47.53;99255.70;1929283;92;29523;-67
2021/08/06 12:05:23;;;;;;;2.62;2.05;;;;;;;22.94;48.48;99254.45;1939016;89;31085;-66
2021/08/06 12:08:31;;;;;;;3.35;1.92;;;;;;;22.90;47.72;99252.61;2001861;88;32959;-66
2021/08/06 12:11:45;;;;;;;2.05;1.85;;;;;;;22.78;47.72;99251.30;2003909;88;29634;-66
2021/08/06 12:14:47;;;;;;;2.22;1.98;;;;;;;22.70;48.12;99247.63;1983781;89;27896;-65
2021/08/06 12:18:10;;;;;;;2.52;1.77;;;;;;;22.68;47.48;99249.68;1963150;89;28667;-65
2021/08/06 12:21:25;;;;;;;1.75;1.65;;;;;;;22.65;47.37;99251.93;1947239;91;31060;-65
2021/08/06 12:24:27;;;;;;;;;;;;;;;22.55;47.58;99233.05;1949605;91;32973;-66
2021/08/06 12:27:29;;;;;;;1.65;1.55;;;;;;;22.63;47.70;99258.08;1981614;89;30116;-65
2021/08/06 12:30:35;;;;;;;4.03;1.62;;;;;;;22.56;47.57;99244.30;1961263;90;27745;-65
2021/08/06 12:33:38;;;;;;;3.55;1.90;;;;;;;22.67;47.60;99249.88;1958682;90;29462;-65
2021/08/06 12:36:58;;;;;;;1.90;1.55;;;;;;;22.82;47.50;99250.78;1978745;87;31239;-65
2021/08/06 12:40:00;;;;;;;2.27;1.60;;;;;;;23.03;47.56;99249.23;1999755;87;33170;-65
2021/08/06 12:43:01;;;;;;;4.65;1.67;;;;;;;23.26;46.87;99242.94;1992259;88;29388;-66
2021/08/06 12:46:16;;;;;;;5.05;2.12;;;;;;;23.51;47.16;99249.02;1974156;88;27785;-66
2021/08/06 12:49:29;;;;;;;3.17;1.75;;;;;;;23.65;46.59;99245.98;1957267;89;28678;-66
2021/08/06 12:52:39;;;;;;;5.08;1.47;;;;;;;23.81;47.17;99243.56;1951116;91;31050;-69
2021/08/06 12:55:42;;;;;;;1.77;1.37;;;;;;;23.98;46.65;99240.16;1958745;89;33029;-66
2021/08/06 12:58:45;;;;;;;2.85;1.95;;;;;;;24.15;46.86;99238.05;1931061;89;28943;-66
2021/08/06 13:01:50;;;;;;;2.33;1.70;;;;;;;24.33;47.03;99240.36;1992771;89;27787;-67
2021/08/06 13:04:54;;;;;;;2.50;2.00;;;;;;;24.50;46.84;99235.52;1989725;89;29783;-66
2021/08/06 13:08:12;;;;;;;2.70;1.90;;;;;;;24.62;46.39;99234.49;1982430;88;30491;-66
2021/08/06 13:11:18;;;;;;;1.92;1.80;;;;;;;24.66;46.06;99233.58;1992311;89;33020;-66
2021/08/06 13:14:22;;;;;;;3.15;1.57;;;;;;;24.66;46.63;99235.78;1982037;89;28763;-64
2021/08/06 13:17:26;;;;;;;2.58;2.37;;;;;;;24.63;46.67;99240.80;1989454;88;27719;-66
2021/08/06 13:20:28;;;;;;;3.10;1.82;;;;;;;24.49;45.74;99242.03;1982222;89;28803;-67
2021/08/06 13:23:34;;;;;;;1.90;1.70;;;;;;;24.35;45.58;99251.14;1994932;88;32451;-66
2021/08/06 13:26:36;;;;;;;3.98;1.77;;;;;;;24.20;45.70;99249.28;1991904;88;33024;-66
2021/08/06 13:29:39;;;;;;;1.85;1.72;;;;;;;24.05;45.50;99241.61;1983415;89;30108;-65
2021/08/06 13:32:41;;;;;;;2.00;1.70;;;;;;;23.89;45.42;99248.95;1983422;89;27700;-66
2021/08/06 13:35:44;;;;;;;2.10;1.65;;;;;;;23.80;45.47;99242.73;1982871;88;28726;-65
2021/08/06 13:38:46;;;;;;;1.70;1.45;;;;;;;23.78;45.74;99248.03;2018163;88;31151;-65
2021/08/06 13:41:49;;;;;;;1.82;1.55;;;;;;;23.77;46.03;99246.33;2000395;88;33059;-66
2021/08/06 13:44:51;;;;;;;2.05;1.82;;;;;;;23.79;45.34;99249.23;2000027;88;29522;-65
2021/08/06 13:47:54;;;;;;;2.37;1.67;;;;;;;23.83;45.59;99260.09;2016556;88;27714;-66
2021/08/06 13:50:56;;;;;;;2.45;1.72;;;;;;;23.94;45.52;99258.78;2000010;89;28627;-65
2021/08/06 13:53:59;;;;;;;2.80;1.70;;;;;;;24.07;45.78;99262.26;1968602;90;31209;-65
2021/08/06 13:57:01;;;;;;;2.25;1.47;;;;;;;24.13;45.42;99256.55;1966637;90;33204;-65
2021/08/06 14:00:09;;;;;;;4.97;1.80;;;;;;;24.27;46.25;99256.20;2014709;88;29335;-65
2021/08/06 14:03:10;;;;;;;3.42;1.72;;;;;;;24.47;46.16;99259.17;2021411;87;27745;-66
2021/08/06 14:06:12;;;;;;;1.90;1.80;;;;;;;24.58;45.36;99266.04;2021278;87;28356;-66
2021/08/06 14:09:14;;;;;;;1.62;1.52;;;;;;;24.65;44.95;99264.74;2021281;88;30948;-65
2021/08/06 14:12:17;;;;;;;2.17;1.50;;;;;;;24.69;45.28;99262.78;2014643;88;33012;-65
2021/08/06 14:15:19;;;;;;;1.80;1.70;;;;;;;24.83;45.57;99261.58;1968501;89;30113;-66
2021/08/06 14:18:21;;;;;;;2.40;1.87;;;;;;;24.96;45.10;99254.89;1959587;90;27848;-66